Bronx, NY

9:25 AM EST en Febrero 19, 2017 (GMT -0500)
ICS, Bronx | | Change Station

Alt 165 ft 40.82 °N, 73.92 °W | Updated 3 seconds ago

Muy nublado
Muy nublado
59.7 ° F
Sensación térmica 59.7 ° F
N
0.0
Viento Variable Viento desde Norte
Gusts 0.0 mph

Hoy
Alta -- | Baja -- ° F
--% Posibilidad de precipitaciones
Ayer
Alta -- | Baja -- ° F
Precip. -- pul
Presión 29.81 pul
Visibilidad 10.0 Millas
Nubes Baja 5000 ft
Nubes dispersas 11000 ft
Muy nublado 19000 ft
Muy nublado 25000 ft
Punto de rocío 35 ° F
Humedad 40%
Precipitaciones 0.00 pul
Espesor de la nieve No disponible.
6:44 AM 5:35 PM
Cuarto menguante, 43% visible
METAR KLGA 191351Z 26006KT 10SM FEW050 SCT110 BKN190 BKN250 15/02 A2980 RMK AO2 SLP092 T01500022 $
Presión 29.81 pul
Visibilidad 10.0 Millas
Nubes Baja 5000 ft
Nubes dispersas 11000 ft
Muy nublado 19000 ft
Muy nublado 25000 ft
Punto de rocío 35 ° F
Humedad 40%
Precipitaciones 0.00 pul
Espesor de la nieve No disponible.
6:44 AM 5:35 PM
Cuarto menguante, 43% visible
METAR KLGA 191351Z 26006KT 10SM FEW050 SCT110 BKN190 BKN250 15/02 A2980 RMK AO2 SLP092 T01500022 $

Get Your Daily Forecast Email!

Thanks for signing up!

Be on the lookout for a verification email in your inbox.

You'll start receiving the daily forecast at 8 AM.

×

10-Day Weather Forecast

Almanac

Astronomía

Feb. 19, 2017 Salida Puesta
Hora real
Crepúsculo civil
Crepúsculo náutico
Crepúsculo astronómico
Luna
Horas de luz
Horas de luz
Tomorrow will be .
, % of the Moon is Illuminated

Extremos de hoy

Máximos del estado Bajos del estado

Community

WunderPhotos

Upload Photos

1,962,540 ¡fotos cargadas!

WunderBlog® & News

Nearby

Calidad del aire

  Calidad del aire Índice AQ Contaminante
Not available.

Grosos de nieve

Estación Profundido Altura

Actividad de terremotos

Ciudad Distance Mag. Tiempo y dato
Magnitud mínima muestra es 2,5.

Temperaturas de aguas costeras

Lugar Temperatura

Stations

Estaciones meteorológicas cercanas

Ubicación de la estación Temp. Vientos helados Punto de rocío Humedad Viento Precip. Alt Actualizado Tipo
                   

Watches & Warnings

There are currently no watches in effect.